createdAt,value
2022-09-26T00:02:18.361Z,18.70
2022-09-26T00:05:23.952Z,19.90
2022-09-26T00:08:29.268Z,21.60
2022-09-26T00:11:35.626Z,23.40
2022-09-26T00:14:41.138Z,21.20
2022-09-26T00:17:46.593Z,23.00
2022-09-26T00:20:52.016Z,23.20
2022-09-26T00:23:58.700Z,24.40
2022-09-26T00:27:04.116Z,23.40
2022-09-26T00:30:11.651Z,23.60
2022-09-26T00:33:17.019Z,25.40
2022-09-26T00:36:29.811Z,22.50
2022-09-26T00:39:42.276Z,23.40
2022-09-26T00:42:47.827Z,23.00
2022-09-26T00:45:53.658Z,22.20
2022-09-26T00:49:15.218Z,24.00
2022-09-26T00:52:24.060Z,23.30
2022-09-26T00:55:35.168Z,24.00
2022-09-26T00:58:49.205Z,24.10
2022-09-26T01:01:56.990Z,22.50
2022-09-26T01:05:03.187Z,21.60
2022-09-26T01:08:09.014Z,22.40
2022-09-26T01:11:17.191Z,20.40
2022-09-26T01:14:23.309Z,19.80
2022-09-26T01:17:29.169Z,21.80
2022-09-26T01:20:44.463Z,21.10
2022-09-26T01:24:11.638Z,23.50
2022-09-26T01:27:44.390Z,21.30
2022-09-26T01:30:54.231Z,21.80
2022-09-26T01:34:05.951Z,23.00
2022-09-26T01:37:21.953Z,28.30
2022-09-26T01:43:48.913Z,20.80
2022-09-26T01:46:58.476Z,21.30
2022-09-26T01:50:08.413Z,20.30
2022-09-26T01:53:20.218Z,19.80
2022-09-26T01:56:29.456Z,16.40
2022-09-26T01:59:40.384Z,19.30
2022-09-26T02:02:47.838Z,14.80
2022-09-26T02:05:57.361Z,16.50
2022-09-26T02:09:10.521Z,13.70
2022-09-26T02:12:22.584Z,16.90
2022-09-26T02:15:32.421Z,18.20
2022-09-26T02:18:42.152Z,18.40
2022-09-26T02:21:47.989Z,25.80
2022-09-26T02:24:53.825Z,19.60
2022-09-26T02:27:59.551Z,17.80
2022-09-26T02:31:08.469Z,18.80
2022-09-26T02:34:14.392Z,19.20
2022-09-26T02:37:21.997Z,22.00
2022-09-26T02:40:35.405Z,20.60
2022-09-26T02:43:56.857Z,21.70
2022-09-26T02:47:16.392Z,20.40
2022-09-26T02:50:34.565Z,21.60
2022-09-26T02:53:58.671Z,20.40
2022-09-26T02:57:22.498Z,20.00
2022-09-26T03:00:33.872Z,20.50
2022-09-26T03:03:45.505Z,19.20
2022-09-26T03:06:55.813Z,19.50
2022-09-26T03:10:04.710Z,19.30
2022-09-26T03:13:14.370Z,17.40
2022-09-26T03:16:21.204Z,17.00
2022-09-26T03:19:32.554Z,15.60
2022-09-26T03:22:38.253Z,13.60
2022-09-26T03:25:44.572Z,13.30
2022-09-26T03:28:50.325Z,15.00
2022-09-26T03:31:55.725Z,14.30
2022-09-26T03:35:01.184Z,17.40
2022-09-26T03:38:08.310Z,17.20
2022-09-26T03:41:16.927Z,16.10
2022-09-26T03:44:22.895Z,16.70
2022-09-26T03:47:28.305Z,16.30
2022-09-26T03:50:34.765Z,15.30
2022-09-26T03:53:42.057Z,15.70
2022-09-26T03:56:47.325Z,14.30
2022-09-26T03:59:52.633Z,13.20
2022-09-26T04:03:02.822Z,14.60
2022-09-26T04:06:10.290Z,13.60
2022-09-26T04:09:17.730Z,13.30
2022-09-26T04:12:23.654Z,14.80
2022-09-26T04:15:30.019Z,16.20
2022-09-26T04:18:36.398Z,27.10
2022-09-26T04:21:42.378Z,18.20
2022-09-26T04:24:47.691Z,21.60
2022-09-26T04:27:52.978Z,37.50
2022-09-26T04:31:01.509Z,23.00
2022-09-26T04:34:07.635Z,20.90
2022-09-26T04:37:13.420Z,22.90
2022-09-26T04:40:18.887Z,21.90
2022-09-26T04:43:24.389Z,21.30
2022-09-26T04:46:31.442Z,20.10
2022-09-26T04:49:36.954Z,15.00
2022-09-26T04:52:42.971Z,15.70
2022-09-26T04:55:49.313Z,16.30
2022-09-26T04:58:56.643Z,17.40
2022-09-26T05:02:02.699Z,15.20
2022-09-26T05:05:09.697Z,16.10
2022-09-26T05:08:15.657Z,16.40
2022-09-26T05:11:21.619Z,15.90
2022-09-26T05:14:27.326Z,16.70
2022-09-26T05:17:33.180Z,17.70
2022-09-26T05:20:38.514Z,15.60
2022-09-26T05:24:01.640Z,14.40
2022-09-26T05:27:08.325Z,15.10
2022-09-26T05:30:14.121Z,16.00
2022-09-26T05:33:20.303Z,14.70
2022-09-26T05:36:25.847Z,14.70
2022-09-26T05:39:48.730Z,14.00
2022-09-26T05:43:00.384Z,15.20
2022-09-26T05:46:07.878Z,15.40
2022-09-26T05:49:14.854Z,15.60
2022-09-26T05:52:22.408Z,16.50
2022-09-26T05:55:28.461Z,16.00
2022-09-26T05:58:35.454Z,19.10
2022-09-26T06:01:40.832Z,21.60
2022-09-26T06:04:46.240Z,19.00
2022-09-26T06:07:51.971Z,21.90
2022-09-26T06:11:01.409Z,18.90
2022-09-26T06:14:08.392Z,20.00
2022-09-26T06:17:13.741Z,26.50
2022-09-26T06:20:19.390Z,24.20
2022-09-26T06:23:24.773Z,22.50
2022-09-26T06:26:30.196Z,40.10
2022-09-26T06:29:35.524Z,23.50
2022-09-26T06:32:40.903Z,24.40
2022-09-26T06:35:46.200Z,21.50
2022-09-26T06:38:52.131Z,21.10
2022-09-26T06:41:57.448Z,20.00
2022-09-26T06:45:02.730Z,20.40
2022-09-26T06:48:08.148Z,19.90
2022-09-26T06:51:14.528Z,19.20
2022-09-26T06:54:19.953Z,19.30
2022-09-26T06:57:25.236Z,20.90
2022-09-26T07:00:30.736Z,20.30
2022-09-26T07:03:38.631Z,19.20
2022-09-26T07:06:47.175Z,18.40
2022-09-26T07:09:52.482Z,21.50
2022-09-26T07:13:03.272Z,21.40
2022-09-26T07:16:09.199Z,18.60
2022-09-26T07:19:16.230Z,19.40
2022-09-26T07:22:21.659Z,20.40
2022-09-26T07:25:27.025Z,21.40
2022-09-26T07:28:32.458Z,20.60
2022-09-26T07:31:38.169Z,22.50
2022-09-26T07:34:44.017Z,20.80
2022-09-26T07:37:53.817Z,22.40
2022-09-26T07:41:00.911Z,22.50
2022-09-26T07:47:52.522Z,24.60
2022-09-26T07:51:00.186Z,21.80
2022-09-26T07:54:05.809Z,20.30
2022-09-26T07:57:11.891Z,22.60
2022-09-26T08:00:21.370Z,23.30
2022-09-26T08:03:28.593Z,22.70
2022-09-26T08:06:36.784Z,20.60
2022-09-26T08:09:42.110Z,20.00
2022-09-26T08:12:48.177Z,22.70
2022-09-26T08:15:54.350Z,21.50
2022-09-26T08:22:07.538Z,21.00
2022-09-26T08:25:13.424Z,22.00
2022-09-26T08:28:18.842Z,21.10
2022-09-26T08:31:24.191Z,19.00
2022-09-26T08:34:32.276Z,23.00
2022-09-26T08:37:37.598Z,19.50
2022-09-26T08:40:51.487Z,17.10
2022-09-26T08:44:08.310Z,16.30
2022-09-26T08:47:29.679Z,17.20
2022-09-26T08:50:46.393Z,17.30
2022-09-26T08:53:58.489Z,18.50
2022-09-26T08:57:08.557Z,18.20
2022-09-26T09:00:22.606Z,17.80
2022-09-26T09:03:33.463Z,16.00
2022-09-26T09:06:39.237Z,18.20
2022-09-26T09:09:44.646Z,17.50
2022-09-26T09:13:01.997Z,17.00
2022-09-26T09:16:20.078Z,15.80
2022-09-26T09:19:33.863Z,15.50
2022-09-26T09:22:53.563Z,16.80
2022-09-26T09:29:56.722Z,14.60
2022-09-26T09:33:05.402Z,15.60
2022-09-26T09:36:15.044Z,15.90
2022-09-26T09:39:27.570Z,15.70
2022-09-26T09:42:41.857Z,15.10
2022-09-26T09:45:51.589Z,15.70
2022-09-26T09:49:01.470Z,15.80
2022-09-26T09:52:20.479Z,14.00
2022-09-26T09:55:39.832Z,15.70
2022-09-26T09:59:03.748Z,16.40
2022-09-26T10:02:22.079Z,14.20
2022-09-26T10:05:36.828Z,15.40
2022-09-26T10:08:43.301Z,15.00
2022-09-26T10:11:52.500Z,14.10
2022-09-26T10:15:03.248Z,13.40
2022-09-26T10:18:29.550Z,13.20
2022-09-26T10:21:40.848Z,13.60
2022-09-26T10:24:48.873Z,13.40
2022-09-26T10:27:57.468Z,16.00
2022-09-26T10:31:10.557Z,14.30
2022-09-26T10:34:28.010Z,16.80
2022-09-26T10:37:33.856Z,15.70
2022-09-26T10:40:46.178Z,15.40
2022-09-26T10:43:56.492Z,15.50
2022-09-26T10:47:08.309Z,18.20
2022-09-26T10:50:16.754Z,15.60
2022-09-26T10:53:24.185Z,14.30
2022-09-26T10:56:36.741Z,17.60
2022-09-26T10:59:43.549Z,14.40
2022-09-26T11:02:52.304Z,14.30
2022-09-26T11:05:57.650Z,14.10
2022-09-26T11:09:04.750Z,13.90
2022-09-26T11:12:29.196Z,13.30
2022-09-26T11:15:34.644Z,14.20
2022-09-26T11:18:49.441Z,18.00
2022-09-26T11:22:05.755Z,16.80
2022-09-26T11:25:19.628Z,15.10
2022-09-26T11:28:31.536Z,18.60
2022-09-26T11:31:41.037Z,13.00
2022-09-26T11:34:47.283Z,14.20
2022-09-26T11:41:40.954Z,11.50
2022-09-26T11:45:06.109Z,12.00
2022-09-26T11:48:32.936Z,12.70
2022-09-26T11:51:50.928Z,11.90
2022-09-26T11:55:11.837Z,13.10
2022-09-26T11:58:28.025Z,11.10
2022-09-26T12:01:44.178Z,17.30
2022-09-26T12:05:02.646Z,24.90
2022-09-26T12:08:20.696Z,24.70
2022-09-26T12:11:36.953Z,9.70
2022-09-26T12:14:54.202Z,9.10
2022-09-26T12:18:13.820Z,13.70
2022-09-26T12:21:32.182Z,16.90
2022-09-26T12:24:46.260Z,11.30
2022-09-26T12:28:02.124Z,9.10
2022-09-26T12:31:19.780Z,8.10
2022-09-26T12:34:45.128Z,9.60
2022-09-26T12:38:07.289Z,8.90
2022-09-26T12:41:39.483Z,8.00
2022-09-26T12:45:11.831Z,8.80
2022-09-26T12:48:38.256Z,8.20
2022-09-26T12:51:48.119Z,8.00
2022-09-26T12:55:07.734Z,12.60
2022-09-26T12:58:32.338Z,7.80
2022-09-26T13:02:00.733Z,8.40
2022-09-26T13:05:22.415Z,7.30
2022-09-26T13:08:36.878Z,8.00
2022-09-26T13:11:55.084Z,7.10
2022-09-26T13:15:17.369Z,7.30
2022-09-26T13:18:33.161Z,7.60
2022-09-26T13:21:49.789Z,6.60
2022-09-26T13:25:00.445Z,7.90
2022-09-26T13:28:11.512Z,7.30
2022-09-26T13:31:22.754Z,6.80
2022-09-26T13:34:35.930Z,9.80
2022-09-26T13:37:50.501Z,9.60
2022-09-26T13:41:05.067Z,28.10
2022-09-26T13:44:23.547Z,8.70
2022-09-26T13:47:39.981Z,25.80
2022-09-26T13:50:54.836Z,17.30
2022-09-26T13:54:10.665Z,9.50
2022-09-26T14:00:53.501Z,8.40
2022-09-26T14:04:18.982Z,6.50
2022-09-26T14:08:05.329Z,6.40
2022-09-26T14:11:24.521Z,7.70
2022-09-26T14:14:44.317Z,8.50
2022-09-26T14:18:16.434Z,11.80
2022-09-26T14:21:35.123Z,7.70
2022-09-26T14:24:42.370Z,7.10
2022-09-26T14:27:49.430Z,7.30
2022-09-26T14:31:22.267Z,8.90
2022-09-26T14:34:30.497Z,8.00
2022-09-26T14:37:42.577Z,7.30
2022-09-26T14:40:57.823Z,7.90
2022-09-26T14:44:05.461Z,7.50
2022-09-26T14:47:17.266Z,6.90
2022-09-26T14:50:35.482Z,7.80
2022-09-26T14:53:45.229Z,8.60
2022-09-26T14:56:59.578Z,7.80
2022-09-26T15:00:35.053Z,10.90
2022-09-26T15:03:41.216Z,12.50
2022-09-26T15:06:52.058Z,17.40
2022-09-26T15:10:03.207Z,31.40
2022-09-26T15:13:24.170Z,27.80
2022-09-26T15:16:37.612Z,13.30
2022-09-26T15:19:50.329Z,14.80
2022-09-26T15:22:57.458Z,16.00
2022-09-26T15:26:03.772Z,16.10
2022-09-26T15:29:12.144Z,20.80
2022-09-26T15:32:25.865Z,65.40
2022-09-26T15:35:31.959Z,74.40
2022-09-26T15:42:04.285Z,29.00
2022-09-26T15:45:26.279Z,22.30
2022-09-26T15:48:33.314Z,11.00
2022-09-26T15:51:40.773Z,12.60
2022-09-26T15:54:46.443Z,12.70
2022-09-26T15:57:55.941Z,9.50
2022-09-26T16:01:01.782Z,11.40
2022-09-26T16:04:14.884Z,10.80
2022-09-26T16:07:25.008Z,12.70
2022-09-26T16:10:35.640Z,12.30
2022-09-26T16:13:46.288Z,12.70
2022-09-26T16:16:51.732Z,13.20
2022-09-26T16:19:58.970Z,12.30
2022-09-26T16:23:05.872Z,13.10
2022-09-26T16:26:32.430Z,16.20
2022-09-26T16:29:39.089Z,15.50
2022-09-26T16:32:44.539Z,12.50
2022-09-26T16:35:51.633Z,13.80
2022-09-26T16:39:02.739Z,14.10
2022-09-26T16:42:17.873Z,13.00
2022-09-26T16:45:23.502Z,14.20
2022-09-26T16:48:37.604Z,10.80
2022-09-26T16:51:42.939Z,11.40
2022-09-26T16:54:48.713Z,11.90
2022-09-26T16:57:57.849Z,11.50
2022-09-26T17:01:20.632Z,13.80
2022-09-26T17:04:31.312Z,12.90
2022-09-26T17:07:36.705Z,11.30
2022-09-26T17:10:44.061Z,10.50
2022-09-26T17:13:51.697Z,9.80
2022-09-26T17:16:58.402Z,16.10
2022-09-26T17:20:05.140Z,14.80
2022-09-26T17:23:34.861Z,13.70
2022-09-26T17:26:37.723Z,16.50
2022-09-26T17:29:48.593Z,14.90
2022-09-26T17:32:55.265Z,17.70
2022-09-26T17:36:00.802Z,10.60
2022-09-26T17:39:14.049Z,14.90
2022-09-26T17:42:20.394Z,15.20
2022-09-26T17:45:30.337Z,12.40
2022-09-26T17:48:35.911Z,19.50
2022-09-26T17:51:42.867Z,16.90
2022-09-26T17:54:52.232Z,15.70
2022-09-26T17:57:58.503Z,15.10
2022-09-26T18:01:04.519Z,14.20
2022-09-26T18:04:17.933Z,17.50
2022-09-26T18:07:24.474Z,16.20
2022-09-26T18:10:33.802Z,14.50
2022-09-26T18:13:44.826Z,13.30
2022-09-26T18:16:50.257Z,18.30
2022-09-26T18:19:55.567Z,18.80
2022-09-26T18:23:01.159Z,18.70
2022-09-26T18:26:08.229Z,20.00
2022-09-26T18:29:16.908Z,20.40
2022-09-26T18:32:29.092Z,18.10
2022-09-26T18:35:34.604Z,17.80
2022-09-26T18:38:40.054Z,21.60
2022-09-26T18:41:46.237Z,20.50
2022-09-26T18:47:57.133Z,23.90
2022-09-26T18:51:03.407Z,24.50
2022-09-26T18:54:13.423Z,24.50
2022-09-26T18:57:35.491Z,22.00
2022-09-26T19:00:41.102Z,22.10
2022-09-26T19:03:48.579Z,22.70
2022-09-26T19:07:00.885Z,23.10
2022-09-26T19:10:07.918Z,20.10
2022-09-26T19:13:13.253Z,21.00
2022-09-26T19:16:19.671Z,21.80
2022-09-26T19:19:26.188Z,22.00
2022-09-26T19:22:31.666Z,68.70
2022-09-26T19:25:36.981Z,39.60
2022-09-26T19:28:42.283Z,24.60
2022-09-26T19:31:47.743Z,23.60
2022-09-26T19:34:56.906Z,21.10
2022-09-26T19:38:03.813Z,19.90
2022-09-26T19:41:09.272Z,26.10
2022-09-26T19:44:14.823Z,47.90
2022-09-26T19:47:22.481Z,26.40
2022-09-26T19:50:29.128Z,20.90
2022-09-26T19:53:37.460Z,17.40
2022-09-26T19:56:43.235Z,17.80
2022-09-26T19:59:49.398Z,17.40
2022-09-26T20:06:00.096Z,18.80
2022-09-26T20:09:07.521Z,20.60
2022-09-26T20:12:13.488Z,19.50
2022-09-26T20:15:21.147Z,19.10
2022-09-26T20:18:26.721Z,19.20
2022-09-26T20:21:33.625Z,23.00
2022-09-26T20:24:42.133Z,20.90
2022-09-26T20:27:47.430Z,20.60
2022-09-26T20:30:52.968Z,18.00
2022-09-26T20:34:00.186Z,20.90
2022-09-26T20:37:05.775Z,17.00
2022-09-26T20:40:18.237Z,17.10
2022-09-26T20:43:31.353Z,20.70
2022-09-26T20:46:40.556Z,18.80
2022-09-26T20:49:51.075Z,18.20
2022-09-26T20:52:56.387Z,19.20
2022-09-26T20:56:04.034Z,19.20
2022-09-26T20:59:09.386Z,18.00
2022-09-26T21:02:27.111Z,19.80
2022-09-26T21:05:32.674Z,18.60
2022-09-26T21:08:38.330Z,18.60
2022-09-26T21:11:43.982Z,18.10
2022-09-26T21:14:49.289Z,18.10
2022-09-26T21:17:56.257Z,19.40
2022-09-26T21:21:06.751Z,17.90
2022-09-26T21:24:24.150Z,17.50
2022-09-26T21:27:30.503Z,20.60
2022-09-26T21:30:36.204Z,18.30
2022-09-26T21:33:41.907Z,21.90
2022-09-26T21:36:47.800Z,25.90
2022-09-26T21:39:53.413Z,20.50
2022-09-26T21:43:01.919Z,34.20
2022-09-26T21:46:08.387Z,33.40
2022-09-26T21:49:13.776Z,28.90
2022-09-26T21:52:24.649Z,25.20
2022-09-26T21:55:33.714Z,30.30
2022-09-26T21:58:41.941Z,22.10
2022-09-26T22:01:47.332Z,21.00
2022-09-26T22:04:53.077Z,19.10
2022-09-26T22:07:59.026Z,18.10
2022-09-26T22:11:04.486Z,18.30
2022-09-26T22:14:10.032Z,30.80
2022-09-26T22:17:15.381Z,29.00
2022-09-26T22:20:20.831Z,25.30
2022-09-26T22:23:26.264Z,23.40
2022-09-26T22:26:31.630Z,27.10
2022-09-26T22:29:36.928Z,27.90
2022-09-26T22:32:42.431Z,25.20
2022-09-26T22:35:50.417Z,26.30
2022-09-26T22:38:55.889Z,22.30
2022-09-26T22:42:01.392Z,20.90
2022-09-26T22:45:07.933Z,21.40
2022-09-26T22:48:13.293Z,22.60
2022-09-26T22:51:19.512Z,26.40
2022-09-26T22:57:29.249Z,22.00
2022-09-26T23:00:34.602Z,22.40
2022-09-26T23:03:41.974Z,24.30
2022-09-26T23:06:47.304Z,23.70
2022-09-26T23:09:52.653Z,32.80
2022-09-26T23:12:58.313Z,28.90
2022-09-26T23:16:07.904Z,34.80
2022-09-26T23:19:13.244Z,40.40
2022-09-26T23:22:18.677Z,35.80
2022-09-26T23:25:24.127Z,29.60
2022-09-26T23:28:29.778Z,42.30
2022-09-26T23:31:35.157Z,24.70
2022-09-26T23:34:40.579Z,47.10
2022-09-26T23:37:45.905Z,22.50
2022-09-26T23:40:51.299Z,26.20
2022-09-26T23:43:57.044Z,26.80
2022-09-26T23:47:04.326Z,29.10
2022-09-26T23:50:10.619Z,20.60
2022-09-26T23:53:16.908Z,20.50
2022-09-26T23:56:22.347Z,24.70
2022-09-26T23:59:27.804Z,17.00
